Time;durP1;ratioP1;P1;durP2;ratioP2;P2;SDS_P1;SDS_P2;PMS_P1;PMS_P2;Temp;Humidity;BMP_temperature;BMP_pressure;BME280_temperature;BME280_humidity;BME280_pressure;Samples;Min_cycle;Max_cycle;Signal;HPM_P1;HPM_P2
2022/07/02 00:00:47;;;;;;;0.37;0.37;;;16.00;99.90;;;;;;5041181;28;20248;-83
2022/07/02 00:03:19;;;;;;;0.20;0.20;;;15.80;99.90;;;;;;5036448;28;20189;-84
2022/07/02 00:05:55;;;;;;;0.20;0.20;;;15.70;99.90;;;;;;5034386;28;20277;-84
2022/07/02 00:08:23;;;;;;;0.10;0.10;;;15.60;99.90;;;;;;5035092;28;20276;-83
2022/07/02 00:10:51;;;;;;;0.47;0.30;;;15.70;99.90;;;;;;5034117;28;20551;-84
2022/07/02 00:13:17;;;;;;;0.20;0.20;;;15.70;99.90;;;;;;5035298;28;20212;-84
2022/07/02 00:15:44;;;;;;;0.10;0.10;;;15.70;99.90;;;;;;5033289;28;20661;-83
2022/07/02 00:18:11;;;;;;;0.20;0.20;;;15.50;99.90;;;;;;5034860;28;21214;-83
2022/07/02 00:20:38;;;;;;;0.17;0.17;;;15.40;99.90;;;;;;5039440;28;20204;-84
2022/07/02 00:23:03;;;;;;;0.30;0.30;;;15.20;99.90;;;;;;5032794;28;20199;-83
2022/07/02 00:25:36;;;;;;;0.63;0.30;;;15.10;99.90;;;;;;5033242;28;20279;-84
2022/07/02 00:28:03;;;;;;;0.20;0.20;;;15.10;99.90;;;;;;5040288;28;20216;-83
2022/07/02 00:30:28;;;;;;;0.13;0.10;;;15.10;99.90;;;;;;5034416;28;20201;-84
2022/07/02 00:32:54;;;;;;;0.30;0.10;;;15.20;99.90;;;;;;5033842;28;20203;-83
2022/07/02 00:35:20;;;;;;;0.20;0.20;;;15.30;99.90;;;;;;5033298;28;20193;-83
2022/07/02 00:37:48;;;;;;;0.10;0.10;;;15.40;99.90;;;;;;5032642;28;20181;-83
2022/07/02 00:40:14;;;;;;;0.17;0.17;;;15.40;99.90;;;;;;5034132;28;20200;-84
2022/07/02 00:42:40;;;;;;;0.37;0.37;;;15.20;99.90;;;;;;5032751;28;20216;-84
2022/07/02 00:45:06;;;;;;;0.30;0.20;;;15.10;99.90;;;;;;5033662;28;20198;-83
2022/07/02 00:47:32;;;;;;;0.23;0.23;;;15.10;99.90;;;;;;5039971;28;20195;-83
2022/07/02 00:49:58;;;;;;;0.30;0.30;;;14.90;99.90;;;;;;5034898;28;20219;-84
2022/07/02 00:52:23;;;;;;;0.27;0.27;;;14.80;99.90;;;;;;5036506;28;20312;-84
2022/07/02 00:54:49;;;;;;;0.30;0.20;;;14.70;99.90;;;;;;5032268;28;20187;-84
2022/07/02 00:57:14;;;;;;;0.20;0.20;;;14.80;99.90;;;;;;5033018;28;20187;-83
2022/07/02 00:59:41;;;;;;;0.10;0.10;;;14.80;99.90;;;;;;5032679;28;20204;-83
2022/07/02 01:02:07;;;;;;;0.20;0.20;;;14.90;99.90;;;;;;5034226;28;20249;-83
2022/07/02 01:04:33;;;;;;;0.10;0.10;;;15.00;99.90;;;;;;5032994;28;20188;-83
2022/07/02 01:07:08;;;;;;;0.23;0.23;;;14.90;99.90;;;;;;5034222;28;20220;-84
2022/07/02 01:12:24;;;;;;;0.10;0.10;;;14.90;99.90;;;;;;5038186;28;20704;-84
2022/07/02 01:14:51;;;;;;;0.20;0.20;;;14.80;99.90;;;;;;5036233;28;20577;-83
2022/07/02 01:17:16;;;;;;;1.60;0.53;;;14.80;99.90;;;;;;5035737;28;20179;-84
2022/07/02 01:19:42;;;;;;;0.10;0.10;;;14.70;99.90;;;;;;5036813;28;20215;-84
2022/07/02 01:22:11;;;;;;;0.13;0.13;;;14.60;99.90;;;;;;5038373;28;20187;-83
2022/07/02 01:24:37;;;;;;;0.20;0.20;;;14.60;99.90;;;;;;5043656;28;20186;-83
2022/07/02 01:27:03;;;;;;;0.30;0.30;;;14.40;99.90;;;;;;5037490;28;20226;-84
2022/07/02 01:29:29;;;;;;;0.50;0.30;;;14.30;99.90;;;;;;5037764;28;20710;-83
2022/07/02 01:31:54;;;;;;;0.20;0.20;;;14.30;99.90;;;;;;5038052;28;20563;-83
2022/07/02 01:34:20;;;;;;;0.10;0.10;;;14.30;99.90;;;;;;5043433;28;20189;-83
2022/07/02 01:36:46;;;;;;;0.90;0.30;;;14.40;99.90;;;;;;5035875;28;20182;-83
2022/07/02 01:39:11;;;;;;;0.10;0.10;;;14.40;99.90;;;;;;5039414;28;20214;-83
2022/07/02 01:41:40;;;;;;;0.37;0.37;;;14.30;99.90;;;;;;5036939;28;20550;-83
2022/07/02 01:44:09;;;;;;;0.13;0.13;;;14.40;99.90;;;;;;5036384;28;20234;-84
2022/07/02 01:46:36;;;;;;;0.97;0.33;;;14.30;99.90;;;;;;5037085;28;20209;-84
2022/07/02 01:49:02;;;;;;;0.20;0.20;;;14.30;99.90;;;;;;5037286;28;20295;-84
2022/07/02 01:51:28;;;;;;;0.20;0.20;;;14.20;99.90;;;;;;5038582;28;20215;-84
2022/07/02 01:53:53;;;;;;;0.10;0.10;;;14.20;99.90;;;;;;5035729;28;20183;-83
2022/07/02 01:56:19;;;;;;;0.20;0.20;;;14.30;99.90;;;;;;5036394;28;20210;-83
2022/07/02 01:58:44;;;;;;;0.83;0.20;;;14.50;99.90;;;;;;5037441;28;20193;-83
2022/07/02 02:01:10;;;;;;;0.10;0.10;;;14.60;99.90;;;;;;5035575;28;20186;-82
2022/07/02 02:03:36;;;;;;;0.10;0.10;;;14.60;99.90;;;;;;5036995;28;20205;-84
2022/07/02 02:06:02;;;;;;;0.10;0.10;;;14.70;99.90;;;;;;5035716;28;20198;-83
2022/07/02 02:08:28;;;;;;;0.80;0.30;;;14.70;99.90;;;;;;5035205;28;21314;-84
2022/07/02 02:10:53;;;;;;;0.20;0.20;;;14.60;99.90;;;;;;5035370;28;20189;-83
2022/07/02 02:13:19;;;;;;;0.20;0.20;;;14.60;99.90;;;;;;5036585;28;20303;-83
2022/07/02 02:15:45;;;;;;;0.30;0.30;;;14.60;99.90;;;;;;5035718;28;20175;-83
2022/07/02 02:18:10;;;;;;;0.10;0.10;;;14.70;99.90;;;;;;5035725;28;20189;-84
2022/07/02 02:20:36;;;;;;;0.20;0.20;;;14.70;99.90;;;;;;5034882;28;20622;-83
2022/07/02 02:23:04;;;;;;;0.20;0.20;;;14.80;99.90;;;;;;5041607;28;20196;-84
2022/07/02 02:25:31;;;;;;;0.10;0.10;;;14.70;99.90;;;;;;5034299;28;20246;-84
2022/07/02 02:27:57;;;;;;;0.30;0.30;;;14.50;99.90;;;;;;5042826;28;20731;-84
2022/07/02 02:30:22;;;;;;;2.53;0.20;;;14.60;99.90;;;;;;5036697;28;20205;-83
2022/07/02 02:32:48;;;;;;;0.10;0.10;;;14.50;99.90;;;;;;5036448;28;20264;-85
2022/07/02 02:35:13;;;;;;;0.40;0.40;;;14.50;99.90;;;;;;5034934;28;20196;-83
2022/07/02 02:37:39;;;;;;;0.20;0.20;;;14.60;99.90;;;;;;5037151;28;20197;-83
2022/07/02 02:40:05;;;;;;;0.40;0.40;;;14.60;99.90;;;;;;5037355;28;20212;-83
2022/07/02 02:42:31;;;;;;;0.10;0.10;;;14.70;99.90;;;;;;5035747;28;20590;-83
2022/07/02 02:44:56;;;;;;;0.10;0.10;;;14.70;99.90;;;;;;5034990;28;20225;-83
2022/07/02 02:47:22;;;;;;;0.13;0.13;;;14.60;99.90;;;;;;5036395;28;20257;-83
2022/07/02 02:49:48;;;;;;;0.30;0.30;;;14.50;99.90;;;;;;5035277;28;20204;-83
2022/07/02 02:52:13;;;;;;;0.20;0.20;;;14.60;99.90;;;;;;5034901;28;20639;-84
2022/07/02 02:54:39;;;;;;;0.50;0.20;;;14.60;99.90;;;;;;5041700;28;20192;-83
2022/07/02 02:57:05;;;;;;;0.90;0.60;;;14.70;99.90;;;;;;5036471;28;20211;-84
2022/07/02 02:59:30;;;;;;;0.10;0.10;;;14.80;99.90;;;;;;5036206;28;20262;-83
2022/07/02 03:01:56;;;;;;;0.30;0.30;;;14.80;99.90;;;;;;5034415;28;20196;-84
2022/07/02 03:04:21;;;;;;;0.10;0.10;;;14.80;99.90;;;;;;5034567;28;20190;-82
2022/07/02 03:06:47;;;;;;;0.40;0.40;;;14.80;99.90;;;;;;5057093;28;20694;-84
2022/07/02 03:09:12;;;;;;;0.10;0.10;;;14.70;99.90;;;;;;5036036;28;20241;-82
2022/07/02 03:11:38;;;;;;;0.20;0.20;;;14.40;99.90;;;;;;5040390;28;20208;-83
2022/07/02 03:14:04;;;;;;;0.50;0.50;;;14.40;99.90;;;;;;5036224;28;20199;-83
2022/07/02 03:16:29;;;;;;;0.17;0.17;;;14.50;99.90;;;;;;5036268;28;20221;-82
2022/07/02 03:18:55;;;;;;;0.20;0.20;;;14.60;99.90;;;;;;5036632;28;20207;-83
2022/07/02 03:21:20;;;;;;;0.37;0.37;;;14.50;99.90;;;;;;5037200;28;20193;-83
2022/07/02 03:23:46;;;;;;;0.20;0.20;;;14.60;99.90;;;;;;5037292;28;20188;-82
2022/07/02 03:26:11;;;;;;;0.10;0.10;;;14.60;99.90;;;;;;5035837;28;20275;-83
2022/07/02 03:28:37;;;;;;;0.20;0.20;;;14.50;99.90;;;;;;5035715;28;20194;-83
2022/07/02 03:31:02;;;;;;;0.77;0.63;;;14.50;99.90;;;;;;5033199;28;20810;-83
2022/07/02 03:33:28;;;;;;;0.10;0.10;;;14.50;99.90;;;;;;5033346;28;20280;-83
2022/07/02 03:35:53;;;;;;;0.37;0.37;;;14.60;99.90;;;;;;5035004;28;20602;-84
2022/07/02 03:38:19;;;;;;;0.20;0.20;;;14.60;99.90;;;;;;5035801;28;20183;-84
2022/07/02 03:40:45;;;;;;;0.23;0.20;;;14.70;99.90;;;;;;5035675;28;20234;-83
2022/07/02 03:43:10;;;;;;;0.17;0.17;;;15.40;99.90;;;;;;5034714;28;20280;-84
2022/07/02 03:45:36;;;;;;;0.23;0.23;;;16.50;99.90;;;;;;5033594;28;20202;-84
2022/07/02 03:48:01;;;;;;;0.30;0.30;;;17.40;99.90;;;;;;5035615;28;20225;-82
2022/07/02 03:50:27;;;;;;;0.10;0.10;;;17.70;99.90;;;;;;5034842;28;20706;-83
2022/07/02 03:52:52;;;;;;;0.40;0.33;;;18.20;99.90;;;;;;5033228;28;20552;-83
2022/07/02 03:55:18;;;;;;;0.30;0.30;;;18.50;99.90;;;;;;5033350;28;20181;-84
2022/07/02 03:57:43;;;;;;;0.10;0.10;;;19.50;99.90;;;;;;5049596;28;20336;-83
2022/07/02 04:00:10;;;;;;;0.20;0.20;;;20.30;99.90;;;;;;5033972;28;20213;-83
2022/07/02 04:02:35;;;;;;;0.20;0.20;;;20.60;99.90;;;;;;5034890;28;20197;-83
2022/07/02 04:05:01;;;;;;;0.20;0.20;;;21.20;99.90;;;;;;5034705;28;20266;-84
2022/07/02 04:07:26;;;;;;;0.30;0.27;;;21.60;99.90;;;;;;5033386;28;20281;-84
2022/07/02 04:09:52;;;;;;;0.30;0.30;;;22.00;99.90;;;;;;5033716;28;20915;-83
2022/07/02 04:12:17;;;;;;;0.27;0.20;;;21.60;99.90;;;;;;5041781;28;20704;-83
2022/07/02 04:14:43;;;;;;;0.50;0.47;;;21.10;99.90;;;;;;5038520;28;21309;-84
2022/07/02 04:17:08;;;;;;;0.27;0.27;;;20.80;99.90;;;;;;5034810;28;20185;-82
2022/07/02 04:19:34;;;;;;;0.30;0.30;;;20.90;99.90;;;;;;5034303;28;20236;-84
2022/07/02 04:22:01;;;;;;;0.20;0.20;;;20.60;99.90;;;;;;5033335;28;21194;-84
2022/07/02 04:24:28;;;;;;;0.23;0.23;;;20.50;99.90;;;;;;5035060;28;20192;-82
2022/07/02 04:26:54;;;;;;;0.10;0.10;;;20.30;99.90;;;;;;5033263;28;20203;-84
2022/07/02 04:29:20;;;;;;;0.40;0.40;;;20.40;99.90;;;;;;5034026;28;20234;-83
2022/07/02 04:31:45;;;;;;;0.30;0.30;;;20.10;99.90;;;;;;5034521;28;20201;-84
2022/07/02 04:34:11;;;;;;;1.00;0.47;;;19.30;99.90;;;;;;5034506;28;20182;-83
2022/07/02 04:36:39;;;;;;;0.10;0.10;;;18.70;99.90;;;;;;5033470;28;20185;-83
2022/07/02 04:39:04;;;;;;;0.23;0.23;;;18.10;99.90;;;;;;5039246;28;20624;-83
2022/07/02 04:41:30;;;;;;;0.13;0.13;;;18.00;99.90;;;;;;5035569;28;20194;-83
2022/07/02 04:43:56;;;;;;;0.20;0.20;;;18.20;99.90;;;;;;5037551;28;22087;-83
2022/07/02 04:46:21;;;;;;;0.20;0.20;;;18.40;99.90;;;;;;5037844;28;20189;-83
2022/07/02 04:48:47;;;;;;;0.20;0.20;;;18.50;99.90;;;;;;5037540;28;20193;-83
2022/07/02 04:51:12;;;;;;;0.20;0.20;;;18.60;99.90;;;;;;5040146;28;20335;-83
2022/07/02 04:53:38;;;;;;;0.30;0.30;;;18.30;99.90;;;;;;5037521;28;20609;-84
2022/07/02 04:56:03;;;;;;;1.37;1.27;;;18.30;99.90;;;;;;5036519;28;21460;-83
2022/07/02 04:58:29;;;;;;;0.23;0.23;;;18.20;99.90;;;;;;5038607;28;21083;-83
2022/07/02 05:00:55;;;;;;;0.10;0.10;;;18.20;99.90;;;;;;5038082;28;20288;-84
2022/07/02 05:03:20;;;;;;;0.20;0.20;;;18.00;99.90;;;;;;5036934;28;20693;-83
2022/07/02 05:05:46;;;;;;;0.20;0.20;;;18.00;99.90;;;;;;5042775;28;20193;-83
2022/07/02 05:08:11;;;;;;;0.20;0.20;;;17.90;99.90;;;;;;5038234;28;20186;-82
2022/07/02 05:10:37;;;;;;;0.30;0.30;;;17.90;99.90;;;;;;5038489;28;20213;-84
2022/07/02 05:13:04;;;;;;;0.20;0.20;;;17.80;99.90;;;;;;5035269;28;20214;-83
2022/07/02 05:15:30;;;;;;;0.10;0.10;;;17.80;99.90;;;;;;5039051;28;20339;-80
2022/07/02 05:17:56;;;;;;;0.43;0.43;;;17.70;99.90;;;;;;5039374;28;20240;-83
2022/07/02 05:20:22;;;;;;;0.30;0.30;;;17.70;99.90;;;;;;5061066;28;20698;-82
2022/07/02 05:22:48;;;;;;;0.20;0.20;;;17.70;99.90;;;;;;5037082;28;20185;-83
2022/07/02 05:25:13;;;;;;;0.30;0.30;;;17.70;99.90;;;;;;5040150;28;20189;-83
2022/07/02 05:27:39;;;;;;;0.30;0.30;;;17.70;99.90;;;;;;5035651;28;20182;-82
2022/07/02 05:30:05;;;;;;;0.10;0.10;;;17.80;99.90;;;;;;5035499;28;20366;-82
2022/07/02 05:32:31;;;;;;;0.63;0.63;;;17.80;99.90;;;;;;5034941;28;20231;-83
2022/07/02 05:34:56;;;;;;;0.20;0.20;;;17.80;99.90;;;;;;5038332;28;20190;-81
2022/07/02 05:37:22;;;;;;;0.50;0.50;;;17.90;99.90;;;;;;5037033;28;20186;-82
2022/07/02 05:39:47;;;;;;;0.13;0.13;;;18.00;99.90;;;;;;5036834;28;20201;-83
2022/07/02 05:42:13;;;;;;;3.10;0.20;;;17.80;99.90;;;;;;5038418;28;20240;-82
2022/07/02 05:44:38;;;;;;;0.10;0.10;;;17.70;99.90;;;;;;5036783;28;20208;-82
2022/07/02 05:47:04;;;;;;;0.20;0.20;;;17.80;99.90;;;;;;5036287;28;20194;-81
2022/07/02 05:49:30;;;;;;;0.40;0.40;;;18.00;99.90;;;;;;5037243;28;20217;-82
2022/07/02 05:51:55;;;;;;;0.30;0.30;;;18.20;99.90;;;;;;5040922;28;20202;-83
2022/07/02 05:54:21;;;;;;;0.13;0.13;;;18.30;99.90;;;;;;5035532;28;20925;-82
2022/07/02 05:56:46;;;;;;;0.10;0.10;;;18.30;99.90;;;;;;5037403;28;20206;-82
2022/07/02 05:59:12;;;;;;;0.83;0.83;;;18.00;99.90;;;;;;5035937;28;20222;-82
2022/07/02 06:01:37;;;;;;;1.13;1.13;;;17.80;99.90;;;;;;5036309;28;20323;-82
2022/07/02 06:04:03;;;;;;;0.40;0.40;;;17.80;99.90;;;;;;5035782;28;20201;-83
2022/07/02 06:09:13;;;;;;;0.30;0.30;;;18.20;99.90;;;;;;5037404;28;20272;-82
2022/07/02 06:11:38;;;;;;;0.20;0.20;;;18.30;99.90;;;;;;5038984;28;20222;-83
2022/07/02 06:14:04;;;;;;;0.33;0.33;;;18.20;99.90;;;;;;5037103;28;20191;-82
2022/07/02 06:16:29;;;;;;;1.17;0.57;;;18.20;99.90;;;;;;5038411;28;20255;-82
2022/07/02 06:18:55;;;;;;;0.20;0.20;;;18.00;99.90;;;;;;5038034;28;20216;-82
2022/07/02 06:21:21;;;;;;;1.40;0.30;;;18.20;99.90;;;;;;5035848;28;20239;-82
2022/07/02 06:23:47;;;;;;;0.27;0.27;;;18.50;99.90;;;;;;5058546;28;20182;-82
2022/07/02 06:26:12;;;;;;;0.63;0.63;;;18.60;99.90;;;;;;5034529;28;20177;-82
2022/07/02 06:28:38;;;;;;;0.20;0.20;;;18.20;99.90;;;;;;5037023;28;20196;-83
2022/07/02 06:31:03;;;;;;;0.40;0.40;;;18.50;99.90;;;;;;5036676;28;20190;-83
2022/07/02 06:33:29;;;;;;;0.40;0.40;;;18.40;99.90;;;;;;5035202;28;20221;-83
2022/07/02 06:35:55;;;;;;;0.33;0.33;;;18.20;99.90;;;;;;5037396;28;20619;-83
2022/07/02 06:38:20;;;;;;;0.30;0.30;;;18.30;99.90;;;;;;5033996;28;20189;-83
2022/07/02 06:40:46;;;;;;;0.33;0.33;;;18.60;99.90;;;;;;5035145;28;20225;-83
2022/07/02 06:43:11;;;;;;;0.70;0.50;;;19.00;99.90;;;;;;5037366;28;20197;-82
2022/07/02 06:45:37;;;;;;;0.73;0.40;;;19.30;99.90;;;;;;5035032;28;20190;-82
2022/07/02 06:48:03;;;;;;;0.30;0.30;;;19.60;99.90;;;;;;5058783;28;20285;-82
2022/07/02 06:50:29;;;;;;;0.20;0.20;;;19.30;99.90;;;;;;5037087;28;20687;-82
2022/07/02 06:52:54;;;;;;;0.40;0.40;;;19.20;99.90;;;;;;5035558;28;20283;-82
2022/07/02 06:55:22;;;;;;;0.60;0.60;;;19.30;99.90;;;;;;5033632;28;20173;-82
2022/07/02 06:57:49;;;;;;;0.20;0.20;;;19.30;99.90;;;;;;5034452;28;20718;-82
2022/07/02 07:00:15;;;;;;;0.33;0.33;;;19.60;99.90;;;;;;5035316;28;20733;-82
2022/07/02 07:02:41;;;;;;;0.20;0.20;;;20.00;99.90;;;;;;5036808;28;20212;-82
2022/07/02 07:05:07;;;;;;;0.43;0.43;;;20.40;99.90;;;;;;5035076;28;20214;-83
2022/07/02 07:07:34;;;;;;;0.33;0.33;;;20.50;99.90;;;;;;5036676;28;22206;-84
2022/07/02 07:10:00;;;;;;;0.30;0.30;;;20.70;99.90;;;;;;5032816;28;20292;-82
2022/07/02 07:12:26;;;;;;;0.40;0.40;;;20.80;99.90;;;;;;5031169;28;20309;-82
2022/07/02 07:14:51;;;;;;;0.30;0.30;;;20.90;99.90;;;;;;5031014;28;20762;-82
2022/07/02 07:17:17;;;;;;;0.30;0.30;;;20.70;99.90;;;;;;5033749;28;20649;-83
2022/07/02 07:19:43;;;;;;;0.20;0.20;;;20.40;99.90;;;;;;5036399;28;20206;-83
2022/07/02 07:22:09;;;;;;;0.50;0.50;;;20.50;99.90;;;;;;5035954;28;20185;-82
2022/07/02 07:24:35;;;;;;;0.40;0.40;;;20.50;99.90;;;;;;5034149;28;20654;-82
2022/07/02 07:27:00;;;;;;;0.87;0.60;;;20.50;99.90;;;;;;5035791;28;20198;-83
2022/07/02 07:29:26;;;;;;;0.20;0.20;;;21.00;99.90;;;;;;5035486;28;20316;-83
2022/07/02 07:31:52;;;;;;;0.50;0.50;;;21.30;99.90;;;;;;5034688;28;20218;-83
2022/07/02 07:34:18;;;;;;;0.37;0.37;;;21.50;99.90;;;;;;5034889;28;20187;-83
2022/07/02 07:36:43;;;;;;;0.63;0.63;;;21.60;99.90;;;;;;5035918;28;20209;-83
2022/07/02 07:39:09;;;;;;;0.67;0.40;;;21.60;99.90;;;;;;5034433;28;20292;-83
2022/07/02 07:41:35;;;;;;;0.40;0.40;;;21.10;99.90;;;;;;5034916;28;20198;-84
2022/07/02 07:44:01;;;;;;;0.30;0.30;;;21.40;99.90;;;;;;5055717;28;20292;-83
2022/07/02 07:46:27;;;;;;;0.40;0.40;;;21.80;99.90;;;;;;5034070;28;20247;-83
2022/07/02 07:48:52;;;;;;;0.40;0.40;;;22.10;99.90;;;;;;5034793;28;20563;-83
2022/07/02 07:51:18;;;;;;;0.70;0.70;;;22.40;99.90;;;;;;5034560;28;20791;-83
2022/07/02 07:53:44;;;;;;;0.87;0.87;;;22.40;99.90;;;;;;5040190;28;20197;-83
2022/07/02 07:56:10;;;;;;;1.33;0.60;;;22.10;99.90;;;;;;5058650;28;20189;-83
2022/07/02 07:58:36;;;;;;;0.50;0.40;;;21.90;99.90;;;;;;5033905;28;20181;-83
2022/07/02 08:01:02;;;;;;;0.30;0.30;;;22.20;99.90;;;;;;5033770;28;20184;-83
2022/07/02 08:03:28;;;;;;;0.57;0.40;;;22.00;99.90;;;;;;5034621;28;20257;-83
2022/07/02 08:05:56;;;;;;;0.30;0.30;;;22.50;99.90;;;;;;5032215;28;20197;-83
2022/07/02 08:08:22;;;;;;;0.20;0.20;;;22.80;99.90;;;;;;5033938;28;20235;-83
2022/07/02 08:10:48;;;;;;;0.33;0.33;;;22.80;99.90;;;;;;5035075;28;20213;-83
2022/07/02 08:13:14;;;;;;;0.23;0.23;;;22.60;99.90;;;;;;5033926;28;20260;-83
2022/07/02 08:15:40;;;;;;;1.10;0.43;;;22.30;99.90;;;;;;5031190;28;20194;-83
2022/07/02 08:18:05;;;;;;;0.30;0.30;;;22.40;99.90;;;;;;5031955;28;20189;-83
2022/07/02 08:20:31;;;;;;;0.60;0.60;;;22.90;99.90;;;;;;5032015;28;20216;-82
2022/07/02 08:22:56;;;;;;;0.30;0.30;;;23.20;99.90;;;;;;5031813;28;20717;-83
2022/07/02 08:25:22;;;;;;;0.63;0.57;;;22.60;99.90;;;;;;5035482;28;21101;-83
2022/07/02 08:27:48;;;;;;;0.47;0.47;;;22.30;99.90;;;;;;5056307;28;20272;-83
2022/07/02 08:30:13;;;;;;;0.30;0.30;;;22.70;99.90;;;;;;5032246;28;20580;-84
2022/07/02 08:32:39;;;;;;;1.43;0.60;;;22.80;99.90;;;;;;5037541;28;20209;-83
2022/07/02 08:35:06;;;;;;;0.40;0.40;;;22.50;99.90;;;;;;5043125;28;20193;-83
2022/07/02 08:37:32;;;;;;;0.70;0.40;;;22.50;99.90;;;;;;5037061;28;20208;-82
2022/07/02 08:39:58;;;;;;;0.40;0.40;;;22.80;99.90;;;;;;5036638;28;20206;-83
2022/07/02 08:42:26;;;;;;;0.27;0.27;;;22.80;99.90;;;;;;5036840;28;20185;-83
2022/07/02 08:44:59;;;;;;;0.30;0.30;;;22.50;99.90;;;;;;5035501;28;20190;-83
2022/07/02 08:47:26;;;;;;;0.50;0.50;;;23.00;99.90;;;;;;5033514;28;20236;-83
2022/07/02 08:49:53;;;;;;;0.40;0.40;;;23.10;99.90;;;;;;5037642;28;20267;-83
2022/07/02 08:52:23;;;;;;;0.37;0.37;;;23.60;99.90;;;;;;5036414;28;20206;-82
2022/07/02 08:54:50;;;;;;;0.40;0.40;;;23.80;99.90;;;;;;5033618;28;20174;-84
2022/07/02 08:57:16;;;;;;;0.30;0.30;;;24.10;99.90;;;;;;5034244;28;20198;-83
2022/07/02 08:59:42;;;;;;;0.30;0.30;;;24.40;99.90;;;;;;5032722;28;20201;-83
2022/07/02 09:02:10;;;;;;;0.20;0.20;;;24.50;99.90;;;;;;5033362;28;20186;-84
2022/07/02 09:04:40;;;;;;;0.33;0.23;;;24.20;99.90;;;;;;5040409;28;20276;-83
2022/07/02 09:07:06;;;;;;;0.37;0.37;;;24.00;99.90;;;;;;5040538;28;20186;-84
2022/07/02 09:09:33;;;;;;;0.30;0.30;;;24.30;99.90;;;;;;5035110;28;20207;-83
2022/07/02 09:11:59;;;;;;;0.20;0.20;;;24.60;99.90;;;;;;5056231;28;20242;-83
2022/07/02 09:14:25;;;;;;;0.50;0.50;;;25.00;99.90;;;;;;5036912;28;20210;-83
2022/07/02 09:16:51;;;;;;;0.23;0.23;;;25.00;99.90;;;;;;5036730;28;20179;-85
2022/07/02 09:19:17;;;;;;;0.40;0.40;;;24.70;99.90;;;;;;5035632;28;20754;-83
2022/07/02 09:21:52;;;;;;;0.30;0.30;;;24.90;99.90;;;;;;5038234;28;20189;-83
2022/07/02 09:24:42;;;;;;;0.50;0.50;;;25.10;99.90;;;;;;5034128;28;20219;-83
2022/07/02 09:27:12;;;;;;;0.30;0.30;;;25.40;99.90;;;;;;5033861;28;20191;-83
2022/07/02 09:29:45;;;;;;;0.40;0.40;;;25.10;99.90;;;;;;5038813;28;20238;-84
2022/07/02 09:32:12;;;;;;;0.13;0.13;;;25.50;99.90;;;;;;5039225;28;20237;-83
2022/07/02 09:34:46;;;;;;;0.40;0.40;;;25.10;99.90;;;;;;5038544;28;20190;-84
2022/07/02 09:37:30;;;;;;;0.10;0.10;;;25.60;99.90;;;;;;5035891;28;20208;-83
2022/07/02 09:39:59;;;;;;;0.30;0.30;;;25.80;99.90;;;;;;5035742;28;20264;-81
2022/07/02 09:42:25;;;;;;;1.00;0.30;;;25.70;99.90;;;;;;5035867;28;20264;-83
2022/07/02 09:44:51;;;;;;;0.20;0.20;;;25.60;99.90;;;;;;5036667;28;20197;-83
2022/07/02 09:47:16;;;;;;;0.30;0.30;;;25.50;99.90;;;;;;5036153;28;20189;-83
2022/07/02 09:49:47;;;;;;;0.80;0.80;;;25.70;99.90;;;;;;5036601;28;20210;-82
2022/07/02 09:52:17;;;;;;;0.20;0.20;;;25.60;99.90;;;;;;5037864;28;20209;-84
2022/07/02 09:54:44;;;;;;;0.20;0.20;;;25.90;99.90;;;;;;5034719;28;20189;-83
2022/07/02 09:57:11;;;;;;;0.20;0.20;;;26.00;99.90;;;;;;5058199;28;20891;-82
2022/07/02 09:59:38;;;;;;;0.20;0.20;;;25.90;99.90;;;;;;5036871;28;20691;-83
2022/07/02 10:02:04;;;;;;;2.13;0.73;;;25.60;99.90;;;;;;5035424;28;20572;-82
2022/07/02 10:04:31;;;;;;;0.97;0.50;;;24.70;99.90;;;;;;5037387;28;20701;-83
2022/07/02 10:06:58;;;;;;;0.20;0.20;;;24.60;99.90;;;;;;5036878;28;20186;-82
2022/07/02 10:09:25;;;;;;;5.43;0.30;;;25.10;99.90;;;;;;5037772;28;20694;-82
2022/07/02 10:11:51;;;;;;;0.20;0.20;;;25.70;99.90;;;;;;5036756;28;20524;-84
2022/07/02 10:14:20;;;;;;;0.20;0.20;;;26.10;99.90;;;;;;5035125;28;20250;-83
2022/07/02 10:16:50;;;;;;;0.10;0.10;;;26.20;99.90;;;;;;5033426;28;20204;-83
2022/07/02 10:19:17;;;;;;;0.37;0.37;;;26.40;99.90;;;;;;5036782;28;20202;-82
2022/07/02 10:21:44;;;;;;;0.20;0.20;;;26.20;99.90;;;;;;5035024;28;20244;-83
2022/07/02 10:24:10;;;;;;;0.20;0.20;;;26.50;99.90;;;;;;5035518;28;20187;-82
2022/07/02 10:26:37;;;;;;;0.30;0.30;;;26.60;99.90;;;;;;5035558;28;20194;-83
2022/07/02 10:29:03;;;;;;;0.30;0.30;;;26.80;99.90;;;;;;5036202;28;20209;-83
2022/07/02 10:31:46;;;;;;;0.30;0.30;;;26.90;99.90;;;;;;5035643;28;20174;-82
2022/07/02 10:34:17;;;;;;;0.20;0.20;;;26.40;99.90;;;;;;5035989;28;20200;-83
2022/07/02 10:36:43;;;;;;;0.20;0.20;;;26.40;99.90;;;;;;5036471;28;20217;-83
2022/07/02 10:39:15;;;;;;;0.30;0.30;;;26.70;99.90;;;;;;5038125;28;20272;-82
2022/07/02 10:41:41;;;;;;;0.20;0.20;;;26.80;99.90;;;;;;5037917;28;20642;-83
2022/07/02 10:44:09;;;;;;;0.20;0.20;;;26.40;99.90;;;;;;5035017;28;20205;-83
2022/07/02 10:46:35;;;;;;;0.30;0.30;;;26.80;99.90;;;;;;5033965;28;20224;-82
2022/07/02 10:49:03;;;;;;;0.10;0.10;;;26.90;99.90;;;;;;5036840;28;20782;-83
2022/07/02 10:51:32;;;;;;;0.40;0.40;;;27.10;99.90;;;;;;5037574;28;20557;-83
2022/07/02 10:54:00;;;;;;;0.30;0.30;;;27.30;99.90;;;;;;5044284;28;20229;-82
2022/07/02 10:56:28;;;;;;;0.20;0.20;;;27.40;99.90;;;;;;5041196;28;21164;-83
2022/07/02 10:58:53;;;;;;;0.20;0.20;;;27.70;99.90;;;;;;5033905;28;20206;-82
2022/07/02 11:01:21;;;;;;;0.40;0.40;;;27.20;99.90;;;;;;5039746;28;20185;-88
2022/07/02 11:03:57;;;;;;;0.30;0.30;;;27.00;99.90;;;;;;5032124;28;20268;-81
2022/07/02 11:06:26;;;;;;;0.65;0.30;;;27.40;99.90;;;;;;5033230;28;20669;-81
2022/07/02 11:09:02;;;;;;;0.20;0.20;;;27.70;99.90;;;;;;5054816;28;20216;-82
2022/07/02 11:11:30;;;;;;;0.20;0.20;;;27.60;99.90;;;;;;5034316;28;20177;-81
2022/07/02 11:13:59;;;;;;;0.20;0.20;;;27.80;99.90;;;;;;5058392;28;20186;-82
2022/07/02 11:16:41;;;;;;;0.38;0.38;;;28.10;99.90;;;;;;5033171;28;20186;-81
2022/07/02 11:19:29;;;;;;;0.43;0.17;;;28.10;99.90;;;;;;5035520;28;20237;-83
2022/07/02 11:21:58;;;;;;;0.20;0.20;;;28.30;99.90;;;;;;5036213;28;20186;-83
2022/07/02 11:24:25;;;;;;;0.40;0.40;;;28.20;99.90;;;;;;5034823;28;20675;-83
2022/07/02 11:26:51;;;;;;;0.20;0.20;;;28.10;99.90;;;;;;5033541;28;20674;-84
2022/07/02 11:29:17;;;;;;;0.22;0.22;;;28.00;99.90;;;;;;5031281;28;20269;-83
2022/07/02 11:31:51;;;;;;;0.30;0.30;;;27.80;99.90;;;;;;5040572;28;20554;-82
2022/07/02 11:34:20;;;;;;;0.28;0.28;;;28.10;99.90;;;;;;5034692;28;20179;-83
2022/07/02 11:36:45;;;;;;;0.28;0.28;;;27.90;99.90;;;;;;5034264;28;20178;-83
2022/07/02 11:39:15;;;;;;;0.20;0.20;;;27.90;99.90;;;;;;5034766;28;20204;-83
2022/07/02 11:41:42;;;;;;;0.20;0.20;;;28.10;99.90;;;;;;5034756;28;20182;-83
2022/07/02 11:44:17;;;;;;;0.30;0.30;;;28.20;99.90;;;;;;5036318;28;20225;-83
2022/07/02 11:46:44;;;;;;;0.20;0.20;;;28.30;99.90;;;;;;5037329;28;20757;-83
2022/07/02 11:49:15;;;;;;;0.30;0.30;;;28.40;99.90;;;;;;5037578;28;20255;-82
2022/07/02 11:51:41;;;;;;;0.17;0.17;;;28.40;99.90;;;;;;5035867;28;20276;-82
2022/07/02 11:54:09;;;;;;;0.20;0.20;;;28.40;99.90;;;;;;5042621;28;20591;-83
2022/07/02 11:56:40;;;;;;;0.38;0.28;;;28.40;99.90;;;;;;5038162;28;20174;-82
2022/07/02 11:59:12;;;;;;;0.10;0.10;;;28.30;99.90;;;;;;5035321;28;20204;-83
2022/07/02 12:01:39;;;;;;;0.20;0.20;;;28.40;99.90;;;;;;5033044;28;20182;-83
2022/07/02 12:04:07;;;;;;;0.30;0.30;;;28.30;99.90;;;;;;5039860;28;20724;-83
2022/07/02 12:06:35;;;;;;;0.55;0.30;;;28.30;99.90;;;;;;5034515;28;20213;-83
2022/07/02 12:09:02;;;;;;;0.20;0.20;;;28.30;99.90;;;;;;5037160;28;20201;-82
2022/07/02 12:11:29;;;;;;;0.28;0.28;;;28.60;99.90;;;;;;5041634;28;20173;-83
2022/07/02 12:13:55;;;;;;;0.30;0.30;;;28.70;99.90;;;;;;5034691;28;20641;-83
2022/07/02 12:16:26;;;;;;;0.30;0.30;;;28.50;99.90;;;;;;5032362;28;20186;-82
2022/07/02 12:19:02;;;;;;;0.28;0.28;;;28.70;99.90;;;;;;5034404;28;20233;-83
2022/07/02 12:21:47;;;;;;;0.30;0.30;;;28.70;99.90;;;;;;5036625;28;20181;-83
2022/07/02 12:24:22;;;;;;;0.13;0.13;;;28.70;99.90;;;;;;5037971;28;20178;-83
2022/07/02 12:27:03;;;;;;;0.40;0.40;;;29.00;99.90;;;;;;5044225;28;20562;-83
2022/07/02 12:32:29;;;;;;;0.20;0.20;;;29.00;99.90;;;;;;5039202;28;20698;-84
2022/07/02 12:35:00;;;;;;;0.73;0.50;;;29.20;99.90;;;;;;5038697;28;20232;-83
2022/07/02 12:37:37;;;;;;;0.20;0.20;;;29.10;99.90;;;;;;5042649;28;20201;-83
2022/07/02 12:40:17;;;;;;;0.30;0.30;;;29.40;99.90;;;;;;5035926;28;20194;-82
2022/07/02 12:42:47;;;;;;;0.10;0.10;;;29.40;99.90;;;;;;5034509;28;20200;-83
2022/07/02 12:45:25;;;;;;;0.28;0.28;;;29.40;99.90;;;;;;5042452;28;20201;-83
2022/07/02 12:48:08;;;;;;;1.17;0.20;;;29.50;99.90;;;;;;5036704;28;20224;-83
2022/07/02 12:50:37;;;;;;;0.25;0.25;;;29.60;99.90;;;;;;5038821;28;20978;-83
2022/07/02 12:53:05;;;;;;;0.10;0.10;;;29.50;99.90;;;;;;5035465;28;20236;-84
2022/07/02 12:55:34;;;;;;;0.43;0.43;;;29.60;99.90;;;;;;5036432;28;20276;-83